Time;durP1;ratioP1;P1;durP2;ratioP2;P2;SDS_P1;SDS_P2;PMS_P1;PMS_P2;Temp;Humidity;BMP_temperature;BMP_pressure;BME280_temperature;BME280_humidity;BME280_pressure;Samples;Min_cycle;Max_cycle;Signal;HPM_P1;HPM_P2
2023/02/05 00:01:20;;;;;;;2.00;1.90;;;;;;;3.19;100.00;102369.34;5014122;28;20997;-53
2023/02/05 00:03:48;;;;;;;1.37;1.27;;;;;;;3.60;100.00;102373.41;5017284;28;20472;-53
2023/02/05 00:06:14;;;;;;;10.70;3.07;;;;;;;3.54;100.00;102376.69;5018690;28;20454;-54
2023/02/05 00:08:41;;;;;;;2.97;1.10;;;;;;;3.53;100.00;102372.28;5011219;28;21011;-53
2023/02/05 00:11:10;;;;;;;1.37;1.27;;;;;;;3.54;100.00;102373.16;5015552;28;20507;-53
2023/02/05 00:13:41;;;;;;;1.40;1.33;;;;;;;3.35;100.00;102369.03;4999700;28;20461;-53
2023/02/05 00:16:15;;;;;;;1.87;1.43;;;;;;;3.23;100.00;102369.50;5005780;28;20459;-52
2023/02/05 00:18:42;;;;;;;0.60;0.50;;;;;;;3.35;100.00;102370.78;5011272;28;20844;-53
2023/02/05 00:21:09;;;;;;;4.53;1.20;;;;;;;3.27;100.00;102373.13;5006716;28;20453;-52
2023/02/05 00:23:36;;;;;;;1.93;1.37;;;;;;;3.21;100.00;102371.19;5015127;28;20887;-53
2023/02/05 00:26:04;;;;;;;3.07;2.87;;;;;;;3.05;100.00;102371.50;5015554;28;20452;-53
2023/02/05 00:28:32;;;;;;;2.10;0.90;;;;;;;3.22;100.00;102372.97;5015437;28;20456;-53
2023/02/05 00:30:59;;;;;;;1.53;1.43;;;;;;;3.81;100.00;102363.56;5015374;28;20510;-53
2023/02/05 00:33:26;;;;;;;0.90;0.77;;;;;;;3.83;100.00;102358.34;5015152;28;20495;-53
2023/02/05 00:35:52;;;;;;;1.43;1.33;;;;;;;3.70;100.00;102351.81;5015275;28;20908;-53
2023/02/05 00:38:19;;;;;;;1.37;1.27;;;;;;;3.72;100.00;102351.88;5002119;28;20503;-53
2023/02/05 00:40:45;;;;;;;1.33;1.23;;;;;;;3.78;100.00;102350.31;5015154;28;20831;-53
2023/02/05 00:43:11;;;;;;;1.10;1.10;;;;;;;3.98;100.00;102355.34;5014608;28;20500;-53
2023/02/05 00:45:38;;;;;;;1.90;1.17;;;;;;;3.85;100.00;102354.94;5015138;28;20481;-53
2023/02/05 00:48:04;;;;;;;5.73;1.10;;;;;;;3.86;100.00;102353.22;5009238;28;20965;-53
2023/02/05 00:50:32;;;;;;;0.80;0.80;;;;;;;3.71;100.00;102339.56;5007429;28;20453;-53
2023/02/05 00:52:59;;;;;;;1.70;1.23;;;;;;;3.72;100.00;102339.63;5014790;28;20459;-52
2023/02/05 00:55:26;;;;;;;2.50;2.20;;;;;;;3.72;100.00;102334.34;5014684;28;20500;-53
2023/02/05 00:57:52;;;;;;;2.20;0.60;;;;;;;3.70;100.00;102332.50;5014603;28;20467;-53
2023/02/05 01:00:19;;;;;;;0.87;0.87;;;;;;;3.55;100.00;102328.53;5015035;28;20524;-53
2023/02/05 01:02:45;;;;;;;14.63;3.23;;;;;;;3.65;100.00;102327.09;5014771;28;20497;-53
2023/02/05 01:05:12;;;;;;;0.90;0.90;;;;;;;3.74;100.00;102324.78;5027491;28;20463;-53
2023/02/05 01:07:39;;;;;;;0.73;0.73;;;;;;;3.76;100.00;102330.09;5001888;28;20452;-53
2023/02/05 01:10:06;;;;;;;1.47;1.37;;;;;;;3.77;100.00;102321.34;5014460;28;20444;-53
2023/02/05 01:12:32;;;;;;;3.60;1.97;;;;;;;4.00;100.00;102314.19;5006262;28;20461;-53
2023/02/05 01:14:59;;;;;;;1.80;1.70;;;;;;;4.27;100.00;102315.03;4995183;28;20481;-53
2023/02/05 01:17:26;;;;;;;0.67;0.67;;;;;;;4.46;100.00;102317.34;5014265;28;20452;-53
2023/02/05 01:19:52;;;;;;;8.13;1.87;;;;;;;4.36;100.00;102317.00;5001087;28;20500;-53
2023/02/05 01:22:19;;;;;;;7.47;3.67;;;;;;;4.32;100.00;102321.31;5014159;28;20488;-53
2023/02/05 01:24:46;;;;;;;1.80;1.70;;;;;;;4.27;100.00;102311.50;5014180;28;20473;-53
2023/02/05 01:27:12;;;;;;;6.90;2.33;;;;;;;4.16;100.00;102312.06;5014127;28;20460;-53
2023/02/05 01:29:38;;;;;;;9.40;3.03;;;;;;;4.16;100.00;102300.63;5014301;28;20800;-53
2023/02/05 01:32:05;;;;;;;2.80;1.07;;;;;;;4.19;100.00;102297.19;5014104;28;20455;-53
2023/02/05 01:34:31;;;;;;;2.10;0.77;;;;;;;4.21;100.00;102299.03;5013983;28;20523;-53
2023/02/05 01:36:58;;;;;;;4.97;2.27;;;;;;;4.22;100.00;102297.28;5013997;28;20452;-53
2023/02/05 01:39:24;;;;;;;6.50;2.10;;;;;;;4.20;100.00;102298.97;5013859;28;20463;-53
2023/02/05 01:41:51;;;;;;;8.17;1.87;;;;;;;4.30;100.00;102287.88;5013842;28;20524;-53
2023/02/05 01:44:23;;;;;;;1.27;1.27;;;;;;;4.21;100.00;102290.25;5013773;28;20826;-53
2023/02/05 01:46:54;;;;;;;13.23;3.93;;;;;;;4.06;100.00;102278.41;5013667;28;20805;-53
2023/02/05 01:49:32;;;;;;;3.60;2.97;;;;;;;4.02;100.00;102276.53;5000595;28;20462;-53
2023/02/05 01:52:06;;;;;;;1.60;1.40;;;;;;;4.13;100.00;102267.25;5013701;28;20452;-53
2023/02/05 01:54:36;;;;;;;1.43;1.27;;;;;;;4.27;100.00;102265.00;5013769;28;20464;-53
2023/02/05 01:57:07;;;;;;;5.67;4.17;;;;;;;4.39;100.00;102265.38;5013563;28;21014;-53
2023/02/05 01:59:37;;;;;;;9.53;2.20;;;;;;;4.57;100.00;102277.25;4994147;28;20825;-53
2023/02/05 02:02:07;;;;;;;3.90;1.43;;;;;;;4.55;100.00;102282.47;5007514;28;20543;-53
2023/02/05 02:04:38;;;;;;;4.80;2.53;;;;;;;4.39;100.00;102275.00;5021283;28;20474;-53
2023/02/05 02:07:07;;;;;;;2.20;1.73;;;;;;;4.34;100.00;102271.31;5004483;28;20449;-53
2023/02/05 02:09:37;;;;;;;1.77;1.43;;;;;;;4.36;100.00;102275.78;5013393;28;21035;-53
2023/02/05 02:12:04;;;;;;;0.57;0.57;;;;;;;4.40;100.00;102280.31;5010808;28;20537;-53
2023/02/05 02:14:34;;;;;;;1.70;1.60;;;;;;;4.48;100.00;102269.97;5003228;28;20491;-53
2023/02/05 02:17:03;;;;;;;1.77;1.67;;;;;;;4.37;100.00;102268.78;5010234;28;20456;-53
2023/02/05 02:19:44;;;;;;;9.20;1.17;;;;;;;4.35;100.00;102265.22;5003894;28;20448;-53
2023/02/05 02:22:41;;;;;;;0.90;0.90;;;;;;;4.31;100.00;102261.59;5013187;28;20494;-53
2023/02/05 02:25:36;;;;;;;3.23;1.50;;;;;;;4.27;100.00;102243.06;5013180;28;20471;-53
2023/02/05 02:28:10;;;;;;;1.53;1.43;;;;;;;4.51;100.00;102238.47;5013222;28;20453;-53
2023/02/05 02:30:50;;;;;;;1.40;1.27;;;;;;;4.59;100.00;102238.69;5013270;28;20528;-53
2023/02/05 02:33:45;;;;;;;3.37;0.90;;;;;;;4.65;100.00;102241.47;5012964;28;20475;-53
2023/02/05 02:36:23;;;;;;;1.07;1.07;;;;;;;4.51;100.00;102227.94;5013102;28;20441;-53
2023/02/05 02:38:56;;;;;;;3.13;1.43;;;;;;;4.54;100.00;102235.94;5013328;28;20802;-53
2023/02/05 02:41:23;;;;;;;5.03;1.30;;;;;;;4.83;100.00;102241.97;5012829;28;20957;-53
2023/02/05 02:43:55;;;;;;;1.57;1.47;;;;;;;4.88;100.00;102240.34;5012765;28;20530;-53
2023/02/05 02:46:30;;;;;;;3.23;2.00;;;;;;;4.76;100.00;102246.19;5012780;28;20460;-53
2023/02/05 02:49:03;;;;;;;2.70;2.50;;;;;;;4.71;100.00;102237.28;5000344;28;20445;-53
2023/02/05 02:51:32;;;;;;;1.77;1.67;;;;;;;4.59;100.00;102231.69;4993696;28;20450;-53
2023/02/05 02:54:04;;;;;;;1.33;0.60;;;;;;;4.58;100.00;102223.72;5007578;28;20491;-52
2023/02/05 02:56:34;;;;;;;2.80;1.80;;;;;;;4.47;100.00;102213.78;5012816;28;20444;-53
2023/02/05 02:59:09;;;;;;;3.27;1.07;;;;;;;4.24;100.00;102209.63;5013051;28;20885;-53
2023/02/05 03:01:39;;;;;;;1.23;0.87;;;;;;;4.20;100.00;102205.13;5012963;28;20817;-52
2023/02/05 03:04:21;;;;;;;14.80;1.57;;;;;;;4.22;100.00;102198.16;5008257;28;20576;-52
2023/02/05 03:06:51;;;;;;;10.70;2.77;;;;;;;4.22;100.00;102200.78;5006318;28;20455;-53
2023/02/05 03:09:43;;;;;;;6.43;2.53;;;;;;;4.50;100.00;102201.56;4993399;28;20449;-53
2023/02/05 03:12:10;;;;;;;0.80;0.80;;;;;;;4.67;100.00;102205.56;5006008;28;20832;-53
2023/02/05 03:14:37;;;;;;;0.90;0.90;;;;;;;4.70;100.00;102210.91;5003391;28;20476;-53
2023/02/05 03:17:04;;;;;;;1.57;0.53;;;;;;;4.81;100.00;102221.72;5012466;28;20444;-53
2023/02/05 03:19:31;;;;;;;1.33;1.30;;;;;;;4.85;100.00;102220.94;5002078;28;20460;-53
2023/02/05 03:22:03;;;;;;;1.03;0.93;;;;;;;4.71;100.00;102217.94;5010142;28;20966;-53
2023/02/05 03:24:30;;;;;;;3.10;1.63;;;;;;;4.74;100.00;102215.38;5012717;28;20496;-53
2023/02/05 03:26:57;;;;;;;2.23;1.83;;;;;;;4.33;100.00;102209.88;5014781;28;20452;-53
2023/02/05 03:29:31;;;;;;;1.50;1.40;;;;;;;4.46;100.00;102205.84;5000963;28;20503;-53
2023/02/05 03:32:26;;;;;;;5.30;3.60;;;;;;;4.36;100.00;102204.69;5012326;28;20447;-53
2023/02/05 03:35:13;;;;;;;2.73;1.47;;;;;;;4.74;100.00;102204.84;5012606;28;20477;-53
2023/02/05 03:38:06;;;;;;;2.57;2.47;;;;;;;4.88;100.00;102198.19;5012021;28;20456;-54
2023/02/05 03:40:45;;;;;;;3.53;2.20;;;;;;;4.74;100.00;102199.59;5016084;28;20448;-53
2023/02/05 03:43:24;;;;;;;26.83;2.43;;;;;;;4.75;100.00;102190.81;5016192;28;20522;-53
2023/02/05 03:46:03;;;;;;;7.00;1.57;;;;;;;4.73;100.00;102188.16;5016174;28;20557;-53
2023/02/05 03:49:03;;;;;;;1.60;1.07;;;;;;;4.70;100.00;102181.94;5007080;28;20445;-53
2023/02/05 03:51:53;;;;;;;2.37;1.47;;;;;;;4.42;100.00;102206.63;5003968;28;20488;-54
2023/02/05 03:54:31;;;;;;;11.40;1.70;;;;;;;4.76;100.00;102208.41;5012900;28;20476;-53
2023/02/05 03:57:12;;;;;;;8.13;2.50;;;;;;;5.04;100.00;102210.91;5015727;28;20452;-53
2023/02/05 03:59:39;;;;;;;1.07;1.07;;;;;;;5.27;100.00;102216.75;4996189;28;20955;-53
2023/02/05 04:02:06;;;;;;;2.10;2.00;;;;;;;5.37;100.00;102215.22;5009767;28;20452;-53
2023/02/05 04:04:32;;;;;;;1.13;1.07;;;;;;;5.21;100.00;102219.25;5023576;28;20864;-53
2023/02/05 04:06:59;;;;;;;20.27;3.03;;;;;;;5.02;100.00;102216.97;5007474;28;20457;-53
2023/02/05 04:09:25;;;;;;;5.27;2.47;;;;;;;4.91;100.00;102211.44;5015567;28;20954;-53
2023/02/05 04:11:52;;;;;;;6.77;1.80;;;;;;;4.82;100.00;102195.41;5014166;28;20885;-53
2023/02/05 04:14:18;;;;;;;2.37;2.27;;;;;;;4.89;100.00;102202.59;5004099;28;20480;-53
2023/02/05 04:16:45;;;;;;;3.07;1.23;;;;;;;4.83;100.00;102199.81;5015616;28;20814;-53
2023/02/05 04:19:11;;;;;;;1.30;1.13;;;;;;;4.84;100.00;102195.44;5007700;28;20461;-53
2023/02/05 04:21:38;;;;;;;0.80;0.80;;;;;;;4.84;100.00;102206.00;4995925;28;20452;-53
2023/02/05 04:24:04;;;;;;;5.30;2.57;;;;;;;4.84;100.00;102204.25;5003825;28;20492;-53
2023/02/05 04:26:31;;;;;;;1.73;1.53;;;;;;;4.90;100.00;102207.03;5015626;28;20456;-53
2023/02/05 04:28:57;;;;;;;2.73;2.27;;;;;;;4.87;100.00;102206.94;5015173;28;20829;-53
2023/02/05 04:31:24;;;;;;;1.93;1.23;;;;;;;4.82;100.00;102205.94;5015407;28;20526;-53
2023/02/05 04:33:50;;;;;;;6.00;1.33;;;;;;;4.94;100.00;102195.72;5015132;28;20475;-53
2023/02/05 04:36:17;;;;;;;1.40;1.20;;;;;;;4.84;100.00;102179.66;5015004;28;20965;-53
2023/02/05 04:38:43;;;;;;;3.37;1.47;;;;;;;4.77;100.00;102175.94;5015007;28;20461;-53
2023/02/05 04:41:09;;;;;;;1.47;1.37;;;;;;;4.85;100.00;102169.13;5014984;28;20448;-53
2023/02/05 04:43:36;;;;;;;2.40;1.50;;;;;;;4.82;100.00;102165.53;5015048;28;20499;-53
2023/02/05 04:46:09;;;;;;;2.73;2.53;;;;;;;4.83;100.00;102162.94;5014590;28;21019;-53
2023/02/05 04:48:37;;;;;;;1.93;1.13;;;;;;;5.05;100.00;102162.59;5005506;28;20960;-53
2023/02/05 04:51:12;;;;;;;2.63;2.40;;;;;;;4.99;100.00;102172.13;5011650;28;20499;-53
2023/02/05 04:53:39;;;;;;;1.47;1.37;;;;;;;5.08;100.00;102180.25;5014863;28;20456;-53
2023/02/05 04:56:14;;;;;;;3.00;1.37;;;;;;;5.01;100.00;102175.69;5014644;28;20461;-53
2023/02/05 04:58:41;;;;;;;1.50;1.40;;;;;;;4.97;100.00;102184.38;5014650;28;20444;-53
2023/02/05 05:01:18;;;;;;;3.07;1.63;;;;;;;4.94;100.00;102179.91;5014863;28;20459;-53
2023/02/05 05:03:45;;;;;;;2.80;0.60;;;;;;;4.95;100.00;102181.69;5015568;28;20495;-53
2023/02/05 05:06:12;;;;;;;0.80;0.80;;;;;;;5.09;100.00;102167.97;5018458;28;20545;-53
2023/02/05 05:08:39;;;;;;;2.53;2.40;;;;;;;4.95;100.00;102171.16;5009718;28;20449;-53
2023/02/05 05:11:08;;;;;;;5.10;1.50;;;;;;;4.94;100.00;102179.91;5014564;28;20457;-53
2023/02/05 05:13:35;;;;;;;0.80;0.60;;;;;;;5.05;100.00;102190.69;5001223;28;20504;-54
2023/02/05 05:16:03;;;;;;;2.50;2.23;;;;;;;5.12;100.00;102182.09;5014185;28;20453;-53
2023/02/05 05:18:29;;;;;;;0.83;0.83;;;;;;;5.02;100.00;102194.16;5011603;28;20856;-53
2023/02/05 05:20:56;;;;;;;4.17;1.87;;;;;;;4.96;100.00;102186.13;4994926;28;20455;-53
2023/02/05 05:23:23;;;;;;;2.83;2.63;;;;;;;4.94;100.00;102185.19;5010382;28;20498;-53
2023/02/05 05:25:49;;;;;;;2.00;1.80;;;;;;;4.90;100.00;102183.31;5014190;28;20895;-53
2023/02/05 05:28:16;;;;;;;1.20;1.07;;;;;;;5.11;100.00;102176.81;5014273;28;20452;-53
2023/02/05 05:30:44;;;;;;;2.13;2.00;;;;;;;5.11;100.00;102189.97;5013852;28;20511;-53
2023/02/05 05:33:11;;;;;;;3.63;2.07;;;;;;;5.39;100.00;102188.88;5014055;28;20449;-53
2023/02/05 05:35:37;;;;;;;17.50;2.43;;;;;;;5.25;100.00;102191.19;5014030;28;20555;-53
2023/02/05 05:38:04;;;;;;;1.10;1.00;;;;;;;5.23;100.00;102195.56;5013409;28;20448;-53
2023/02/05 05:46:05;;;;;;;1.07;0.97;;;;;;;5.26;100.00;102195.63;5015606;28;20496;-53
2023/02/05 05:48:32;;;;;;;1.83;1.73;;;;;;;5.22;100.00;102186.75;5005370;28;20453;-53
2023/02/05 05:50:59;;;;;;;5.03;2.00;;;;;;;5.16;100.00;102185.69;5011024;28;20458;-53
2023/02/05 05:53:25;;;;;;;2.70;2.50;;;;;;;5.13;100.00;102178.63;5014026;28;20449;-53
2023/02/05 05:55:51;;;;;;;3.33;2.97;;;;;;;5.55;100.00;102191.91;5013975;28;20492;-53
2023/02/05 05:58:18;;;;;;;2.10;2.00;;;;;;;5.27;100.00;102193.00;5013027;28;20452;-53
2023/02/05 06:00:44;;;;;;;11.23;1.87;;;;;;;5.41;100.00;102193.34;5013847;28;20452;-53
2023/02/05 06:03:11;;;;;;;4.60;1.43;;;;;;;5.17;100.00;102190.13;5013676;28;20491;-54
2023/02/05 06:05:38;;;;;;;5.80;3.03;;;;;;;5.50;100.00;102190.91;5023101;28;20465;-53
2023/02/05 06:08:04;;;;;;;2.83;2.73;;;;;;;5.56;100.00;102192.78;5003905;28;20452;-53
2023/02/05 06:10:31;;;;;;;1.27;1.17;;;;;;;5.52;100.00;102205.03;5013142;28;20454;-53
2023/02/05 06:12:59;;;;;;;1.67;1.63;;;;;;;5.51;100.00;102184.78;5002457;28;20461;-54
2023/02/05 06:15:25;;;;;;;4.00;3.47;;;;;;;5.37;100.00;102188.84;5010758;28;20563;-54
2023/02/05 06:17:52;;;;;;;1.47;1.37;;;;;;;5.29;100.00;102185.13;5013024;28;20960;-54
2023/02/05 06:20:19;;;;;;;22.07;2.87;;;;;;;5.20;100.00;102184.91;5000138;28;20449;-54
2023/02/05 06:22:45;;;;;;;1.70;1.60;;;;;;;5.20;100.00;102172.63;5011964;28;20480;-54
2023/02/05 06:25:12;;;;;;;2.60;2.50;;;;;;;5.26;100.00;102166.63;5013500;28;20476;-54
2023/02/05 06:27:38;;;;;;;1.33;1.23;;;;;;;5.20;100.00;102166.44;5013057;28;20948;-54
2023/02/05 06:30:05;;;;;;;7.83;3.30;;;;;;;5.20;100.00;102161.19;5013125;28;20824;-54
2023/02/05 06:32:32;;;;;;;21.23;2.83;;;;;;;5.12;100.00;102157.50;5013174;28;20458;-54
2023/02/05 06:34:58;;;;;;;4.37;1.80;;;;;;;5.11;100.00;102153.97;5012928;28;20506;-54
2023/02/05 06:37:27;;;;;;;4.03;2.70;;;;;;;5.09;100.00;102144.25;5012979;28;20453;-54
2023/02/05 06:40:12;;;;;;;2.77;2.57;;;;;;;5.14;100.00;102150.50;4993776;28;20453;-54
2023/02/05 06:42:39;;;;;;;1.83;1.70;;;;;;;5.06;100.00;102140.66;5008670;28;20837;-54
2023/02/05 06:45:06;;;;;;;2.63;2.03;;;;;;;5.10;100.00;102146.03;5012930;28;20554;-54
2023/02/05 06:47:32;;;;;;;11.77;2.20;;;;;;;5.04;100.00;102138.84;5012705;28;20480;-54
2023/02/05 06:49:58;;;;;;;18.17;1.90;;;;;;;4.92;100.00;102143.81;5004042;28;20520;-53
2023/02/05 06:52:25;;;;;;;2.30;1.37;;;;;;;4.70;100.00;102138.03;5009184;28;20452;-52
2023/02/05 06:54:51;;;;;;;2.37;2.17;;;;;;;4.82;100.00;102128.66;5013156;28;20883;-52
2023/02/05 06:57:18;;;;;;;7.13;2.13;;;;;;;4.57;100.00;102120.16;5012919;28;20452;-52
2023/02/05 06:59:44;;;;;;;2.63;2.43;;;;;;;4.46;100.00;102125.13;5012849;28;20456;-52
2023/02/05 07:02:14;;;;;;;1.20;1.20;;;;;;;4.73;100.00;102129.31;5028072;28;20458;-52
2023/02/05 07:04:40;;;;;;;1.87;1.40;;;;;;;4.89;100.00;102134.09;5021598;28;20586;-53
2023/02/05 07:07:07;;;;;;;1.23;1.23;;;;;;;5.14;100.00;102150.50;5003807;28;20455;-52
2023/02/05 07:09:33;;;;;;;3.27;1.93;;;;;;;5.07;100.00;102154.72;5012658;28;20500;-52
2023/02/05 07:12:00;;;;;;;2.40;2.30;;;;;;;5.12;100.00;102162.78;5013301;28;20681;-53
2023/02/05 07:14:26;;;;;;;1.60;1.50;;;;;;;5.11;100.00;102174.16;5006228;28;20472;-53
2023/02/05 07:16:53;;;;;;;8.23;3.97;;;;;;;5.35;100.00;102186.19;5016510;28;20460;-52
2023/02/05 07:19:19;;;;;;;44.67;1.90;;;;;;;5.55;100.00;102188.38;5007173;28;20473;-52
2023/02/05 07:21:46;;;;;;;1.17;1.07;;;;;;;5.29;100.00;102188.66;5012735;28;20484;-52
2023/02/05 07:24:13;;;;;;;4.00;2.83;;;;;;;5.18;100.00;102173.44;5016560;28;20502;-53
2023/02/05 07:26:41;;;;;;;1.50;1.23;;;;;;;5.27;100.00;102177.19;5016354;28;20449;-52
2023/02/05 07:29:08;;;;;;;2.53;2.33;;;;;;;5.20;100.00;102166.44;5016385;28;20459;-53
2023/02/05 07:31:35;;;;;;;1.50;1.40;;;;;;;5.20;100.00;102158.53;5016531;28;20459;-52
2023/02/05 07:34:02;;;;;;;2.93;2.77;;;;;;;5.19;100.00;102155.03;5016352;28;20465;-52
2023/02/05 07:36:28;;;;;;;1.93;1.77;;;;;;;5.15;100.00;102150.53;5016044;28;20896;-53
2023/02/05 07:38:55;;;;;;;26.00;2.10;;;;;;;5.18;100.00;102150.59;5016364;28;20452;-52
2023/02/05 07:41:21;;;;;;;9.77;3.10;;;;;;;5.11;100.00;102151.34;5016359;28;20463;-53
2023/02/05 07:43:52;;;;;;;2.57;2.37;;;;;;;4.99;100.00;102143.13;5016130;28;20843;-53
2023/02/05 07:46:21;;;;;;;1.40;1.30;;;;;;;5.10;100.00;102146.03;5015995;28;20452;-52
2023/02/05 07:48:48;;;;;;;1.47;1.37;;;;;;;5.01;100.00;102144.06;5005063;28;20453;-52
2023/02/05 07:51:17;;;;;;;30.53;3.00;;;;;;;5.08;100.00;102155.66;5014306;28;20459;-52
2023/02/05 07:53:44;;;;;;;14.23;2.90;;;;;;;5.16;100.00;102154.06;5016049;28;20463;-53
2023/02/05 07:56:10;;;;;;;1.70;1.23;;;;;;;5.14;100.00;102139.97;5016057;28;20468;-52
2023/02/05 07:58:37;;;;;;;3.33;3.07;;;;;;;5.26;100.00;102141.16;5015757;28;20459;-52
2023/02/05 08:01:04;;;;;;;2.00;1.90;;;;;;;5.47;100.00;102137.19;5015482;28;20486;-52
2023/02/05 08:03:31;;;;;;;5.30;3.33;;;;;;;5.33;100.00;102134.25;5015336;28;20480;-52
2023/02/05 08:05:58;;;;;;;4.13;3.80;;;;;;;5.21;100.00;102129.63;5023254;28;20465;-52
2023/02/05 08:08:24;;;;;;;2.67;1.67;;;;;;;5.16;100.00;102132.97;5009131;28;20448;-53
2023/02/05 08:10:56;;;;;;;2.93;2.50;;;;;;;5.13;100.00;102125.91;5015760;28;20456;-53
2023/02/05 08:13:22;;;;;;;2.90;2.63;;;;;;;4.99;100.00;102117.66;4996863;28;20457;-53
2023/02/05 08:15:49;;;;;;;1.37;1.30;;;;;;;4.98;100.00;102110.63;5058716;22;20506;-53
2023/02/05 08:18:15;;;;;;;6.20;2.90;;;;;;;5.10;100.00;102125.84;5054844;28;20443;-53
2023/02/05 08:20:43;;;;;;;3.60;2.50;;;;;;;5.22;100.00;102119.97;5054909;28;20447;-53
2023/02/05 08:23:09;;;;;;;2.43;2.33;;;;;;;5.29;100.00;102129.78;5054316;28;20450;-53
2023/02/05 08:25:37;;;;;;;1.97;1.77;;;;;;;5.32;100.00;102116.66;5046902;28;20491;-53
2023/02/05 08:28:04;;;;;;;3.87;3.57;;;;;;;5.31;100.00;102120.16;5048227;28;20484;-53
2023/02/05 08:30:31;;;;;;;1.43;1.33;;;;;;;5.31;100.00;102128.94;5042847;28;20447;-53
2023/02/05 08:32:57;;;;;;;7.37;2.83;;;;;;;5.31;100.00;102128.94;5041329;28;20554;-55
2023/02/05 08:35:24;;;;;;;3.47;3.27;;;;;;;5.38;100.00;102121.19;5046389;28;20455;-53
2023/02/05 08:37:50;;;;;;;2.43;2.13;;;;;;;5.39;100.00;102126.50;5047714;28;20451;-53
2023/02/05 08:40:17;;;;;;;6.00;1.97;;;;;;;5.53;100.00;102119.78;5043505;28;20462;-53
2023/02/05 08:42:44;;;;;;;15.70;2.40;;;;;;;5.66;100.00;102118.28;5023483;28;20452;-54
2023/02/05 08:45:10;;;;;;;4.10;2.00;;;;;;;5.56;100.00;102113.66;5045679;28;20495;-53
2023/02/05 08:47:37;;;;;;;11.27;3.00;;;;;;;5.56;100.00;102101.38;5036605;28;20459;-53
2023/02/05 08:50:04;;;;;;;9.53;3.43;;;;;;;5.53;100.00;102098.66;5044049;28;20450;-53
2023/02/05 08:52:31;;;;;;;2.87;2.70;;;;;;;5.57;100.00;102091.72;5041443;28;20547;-53
2023/02/05 08:54:57;;;;;;;3.50;2.80;;;;;;;5.62;100.00;102085.69;5045479;28;20503;-53
2023/02/05 08:57:28;;;;;;;3.20;2.30;;;;;;;5.67;100.00;102095.44;5047610;28;21109;-53
2023/02/05 08:59:55;;;;;;;4.00;1.47;;;;;;;5.70;100.00;102099.00;5027448;28;20451;-53
2023/02/05 09:02:23;;;;;;;3.10;2.73;;;;;;;5.76;100.00;102093.88;5041292;28;20450;-53
2023/02/05 09:04:53;;;;;;;4.97;1.80;;;;;;;5.73;100.00;102100.81;5043118;28;20550;-53
2023/02/05 09:07:34;;;;;;;5.73;3.00;;;;;;;6.01;100.00;102099.66;5047604;28;20447;-54
2023/02/05 09:10:00;;;;;;;5.97;2.83;;;;;;;5.84;100.00;102107.22;5047208;28;20504;-53
2023/02/05 09:12:27;;;;;;;3.80;2.07;;;;;;;5.73;100.00;102098.19;5010601;28;20455;-54
2023/02/05 09:14:53;;;;;;;20.47;3.37;;;;;;;5.70;100.00;102096.38;5047229;28;20475;-53
2023/02/05 09:17:19;;;;;;;6.47;3.27;;;;;;;5.73;100.00;102095.53;5047406;28;20506;-53
2023/02/05 09:19:46;;;;;;;2.43;2.33;;;;;;;5.67;100.00;102082.25;5047151;28;20451;-54
2023/02/05 09:22:12;;;;;;;2.13;1.80;;;;;;;5.62;100.00;102092.72;5046905;28;20462;-53
2023/02/05 09:24:39;;;;;;;3.80;3.40;;;;;;;5.75;100.00;102091.19;5046880;28;21058;-53
2023/02/05 09:27:05;;;;;;;2.40;2.30;;;;;;;5.77;100.00;102098.28;5040742;28;20450;-53
2023/02/05 09:29:32;;;;;;;4.90;4.07;;;;;;;5.77;100.00;102097.41;5040249;28;20452;-53
2023/02/05 09:31:58;;;;;;;6.27;2.40;;;;;;;5.53;100.00;102089.88;5046750;28;20448;-53
2023/02/05 09:34:25;;;;;;;3.17;2.50;;;;;;;5.67;100.00;102085.78;5045949;28;20840;-53
2023/02/05 09:36:51;;;;;;;17.73;3.23;;;;;;;5.66;100.00;102086.63;5040779;28;20458;-53
2023/02/05 09:39:18;;;;;;;2.90;2.70;;;;;;;5.35;100.00;102085.09;5040141;28;20456;-54
2023/02/05 09:42:32;;;;;;;8.40;2.70;;;;;;;5.50;100.00;102084.53;5043222;28;21016;-53
2023/02/05 09:45:20;;;;;;;6.43;3.40;;;;;;;5.59;100.00;102082.97;5028021;28;20490;-53
2023/02/05 09:48:32;;;;;;;5.73;1.70;;;;;;;5.56;100.00;102089.94;5039932;28;20492;-53
2023/02/05 09:51:00;;;;;;;4.07;2.40;;;;;;;5.67;100.00;102080.50;5008306;28;20826;-52
2023/02/05 09:53:34;;;;;;;1.77;1.67;;;;;;;5.78;100.00;102083.34;5042652;28;20827;-51
2023/02/05 09:56:03;;;;;;;2.63;2.43;;;;;;;5.70;100.00;102072.63;5046341;28;20827;-52
2023/02/05 09:58:34;;;;;;;1.70;1.53;;;;;;;5.83;100.00;102063.22;5045643;28;20477;-52
2023/02/05 10:01:05;;;;;;;9.00;3.43;;;;;;;5.82;100.00;102062.31;5039618;28;20450;-52
2023/02/05 10:03:46;;;;;;;3.67;2.00;;;;;;;5.81;100.00;102060.56;5039285;28;20454;-54
2023/02/05 10:06:18;;;;;;;11.37;3.37;;;;;;;5.81;100.00;102057.03;5012261;28;20807;-51
2023/02/05 10:09:01;;;;;;;2.63;1.97;;;;;;;5.92;100.00;102059.03;5039340;28;20456;-51
2023/02/05 10:11:35;;;;;;;2.23;2.13;;;;;;;6.01;100.00;102057.41;5036571;28;20486;-51
2023/02/05 10:14:28;;;;;;;3.03;1.40;;;;;;;6.15;100.00;102063.84;5045588;28;20439;-52
2023/02/05 10:17:03;;;;;;;2.93;1.43;;;;;;;6.14;100.00;102062.06;4988960;28;20448;-51
2023/02/05 10:19:47;;;;;;;3.87;2.40;;;;;;;6.14;100.00;102055.03;5026389;28;20477;-52
2023/02/05 10:22:35;;;;;;;7.40;4.63;;;;;;;6.26;100.00;102048.19;5026385;28;20460;-53
2023/02/05 10:25:31;;;;;;;3.03;2.90;;;;;;;6.22;100.00;102045.50;5021297;28;21007;-52
2023/02/05 10:28:24;;;;;;;2.47;2.33;;;;;;;6.24;100.00;102049.06;5039356;28;20444;-52
2023/02/05 10:31:02;;;;;;;6.00;4.20;;;;;;;6.29;100.00;102045.59;5041484;28;20535;-56
2023/02/05 10:33:49;;;;;;;5.67;4.00;;;;;;;6.18;100.00;102030.50;5046150;28;20960;-56
2023/02/05 10:36:20;;;;;;;4.00;2.13;;;;;;;6.29;100.00;102028.00;5045675;28;20989;-56
2023/02/05 10:38:49;;;;;;;2.70;2.50;;;;;;;6.26;100.00;102027.97;5042414;28;20450;-56
2023/02/05 10:41:24;;;;;;;4.87;4.40;;;;;;;6.44;100.00;102024.72;5038739;28;20453;-56
2023/02/05 10:44:02;;;;;;;4.00;3.70;;;;;;;6.32;100.00;102017.53;5041074;28;20443;-54
2023/02/05 10:46:33;;;;;;;11.97;4.77;;;;;;;6.20;100.00;102012.03;5045865;28;20451;-55
2023/02/05 10:49:14;;;;;;;3.13;2.77;;;;;;;6.33;100.00;102010.50;5045902;28;20486;-55
2023/02/05 10:51:43;;;;;;;9.10;3.63;;;;;;;6.26;100.00;102006.84;5029548;28;20459;-55
2023/02/05 10:54:29;;;;;;;5.10;2.93;;;;;;;6.11;100.00;102002.19;5038752;28;20448;-56
2023/02/05 10:56:57;;;;;;;5.80;3.60;;;;;;;6.09;100.00;102001.28;5040467;28;20463;-56
2023/02/05 10:59:31;;;;;;;13.57;5.13;;;;;;;6.18;100.00;102001.44;5045587;28;20458;-54
2023/02/05 11:02:05;;;;;;;9.00;5.13;;;;;;;6.24;100.00;101998.88;5045376;28;20826;-54
2023/02/05 11:04:43;;;;;;;3.43;3.13;;;;;;;6.39;100.00;101997.38;5036900;28;20837;-54
2023/02/05 11:07:13;;;;;;;22.13;8.83;;;;;;;6.44;100.00;101990.38;5041682;28;20520;-54
2023/02/05 11:09:40;;;;;;;2.80;2.60;;;;;;;6.31;100.00;101988.44;5041829;28;20458;-54
2023/02/05 11:12:29;;;;;;;4.80;1.70;;;;;;;6.31;100.00;101988.44;5028443;28;20517;-54
2023/02/05 11:14:59;;;;;;;8.80;2.97;;;;;;;6.44;100.00;101985.09;5045239;28;20493;-55
2023/02/05 11:17:37;;;;;;;2.50;2.30;;;;;;;6.46;100.00;101980.75;5012980;28;20487;-54
2023/02/05 11:20:12;;;;;;;9.70;3.13;;;;;;;6.45;100.00;101979.88;5028943;28;20482;-54
2023/02/05 11:22:39;;;;;;;8.50;3.40;;;;;;;6.59;100.00;101976.56;5041993;28;20447;-54
2023/02/05 11:25:17;;;;;;;2.60;1.80;;;;;;;6.68;100.00;101974.03;5044766;28;20837;-54
2023/02/05 11:27:53;;;;;;;2.13;2.03;;;;;;;6.59;100.00;101976.56;5043880;28;20492;-54
2023/02/05 11:30:34;;;;;;;30.17;2.97;;;;;;;6.44;100.00;101971.91;5038588;28;20446;-53
2023/02/05 11:33:20;;;;;;;11.60;2.83;;;;;;;6.60;100.00;101973.06;5038369;28;20443;-54
2023/02/05 11:35:54;;;;;;;2.10;2.00;;;;;;;6.66;100.00;101963.44;5040724;28;20474;-52
2023/02/05 11:38:42;;;;;;;8.90;3.03;;;;;;;6.61;100.00;101962.50;5044988;28;20451;-55
2023/02/05 11:41:11;;;;;;;7.37;4.60;;;;;;;6.66;100.00;101960.81;5045107;28;20470;-52
2023/02/05 11:43:50;;;;;;;5.07;2.83;;;;;;;6.70;100.00;101949.41;5041146;28;20483;-52
2023/02/05 11:46:19;;;;;;;2.80;2.60;;;;;;;6.78;100.00;101960.09;5038144;28;20498;-52